• Join FlightAware (Why Join?)
  • Login
  • US Flag 
11:08PM EDT


 

Airport Tracker/Info


-or-


 

Live Flight TrackerFlight Track Log ✈ N27XP ✈ 13-Jun-2014 ✈ KSOP - KMTV

Flight Track Log - Related Links

Times and Time Zones

All times are in EDT time to prevent confusion due to time zone crossing. See the N27XP flight status page for this flight to view local times or setup timezone preferences in your user account.

Time Position Orientation Groundspeed Altitude Reporting Facility
EDT Latitude Longitude Course Direction KTS MPH feet Rate Location/Type
11:25AM 35.3969 -79.1822 340° North 304 350 7,100  Level Washington Center
11:26AM 35.4783 -79.1144 34° Northeast 292 336 7,100  Level Washington Center
11:27AM 35.5403 -79.0611 35° Northeast 291 335 7,100 420 Level Washington Center
11:28AM 35.9258 -79.6970 340° North  Level Estimated
11:28AM 35.6111 -79.0667 356° North 287 330 8,000  Level Washington Center
11:29AM 36.0405 -79.7488 340° North  Level Estimated
11:29AM 35.6761 -79.1258 324° Northwest 283 326 8,100  Level Washington Center
11:30AM 36.1551 -79.8008 340° North  Level Estimated
11:30AM 35.7392 -79.1822 324° Northwest 278 320 8,100  Level Washington Center
11:32AM 35.8937 -79.3254 323° Northwest  Level Estimated
11:39AM 36.5749 -79.9652 323° Northwest  Level Estimated
11:40AM 36.6167 -80.0167 22° Northeast  Level FlightAware Approximate
11:41AM 36.6307 -80.0183 22° Northeast  Level Estimated
11:42AM 36.6307 -80.0183 22° Northeast  Level Estimated
11:43AM 36.6307 -80.0183 22° Northeast  Level Estimated
11:44AM 36.6307 -80.0183 22° Northeast  Level Estimated
11:45AM 36.6307 -80.0183 22° Northeast  Level Estimated
11:46AM 36.6307 -80.0183 22° Northeast  Level Estimated
11:47AM 36.6307 -80.0183 22° Northeast  Level Estimated
11:48AM 36.6307 -80.0183 22° Northeast  Level Estimated
11:49AM 36.6307 -80.0183 22° Northeast  Level Estimated
11:50AM 36.6307 -80.0183 22° Northeast  Level Estimated
11:51AM 36.6307 -80.0183 22° Northeast  Level Estimated
11:52AM 36.6307 -80.0183 22° Northeast  Level Estimated
11:53AM 36.6307 -80.0183 22° Northeast  Level Estimated
11:54AM 36.6307 -80.0183 22° Northeast  Level Estimated
11:55AM 36.6307 -80.0183 22° Northeast  Level Estimated
11:56AM 36.6307 -80.0183 22° Northeast  Level Estimated
11:57AM 36.6307 -80.0183 22° Northeast  Level Estimated
11:58AM 36.6307 -80.0183 22° Northeast  Level Estimated
11:59AM 36.6307 -80.0183 22° Northeast  Level Estimated
12:00PM 36.6307 -80.0183 22° Northeast  Level Estimated
12:01PM 36.6307 -80.0183 22° Northeast  Level Estimated